createdAt,value
2023-03-06T00:00:53.837Z,99258.03
2023-03-06T00:03:23.142Z,99264.09
2023-03-06T00:05:51.570Z,99262.47
2023-03-06T00:08:20.059Z,99262.69
2023-03-06T00:10:48.442Z,99254.81
2023-03-06T00:13:20.007Z,99265.31
2023-03-06T00:15:50.381Z,99255.59
2023-03-06T00:18:19.124Z,99247.16
2023-03-06T00:20:47.786Z,99241.91
2023-03-06T00:23:16.175Z,99235.81
2023-03-06T00:25:45.647Z,99236.66
2023-03-06T00:28:17.793Z,99230.56
2023-03-06T00:30:47.527Z,99234.22
2023-03-06T00:33:17.350Z,99236.03
2023-03-06T00:35:45.757Z,99237.66
2023-03-06T00:38:14.669Z,99228.16
2023-03-06T00:40:43.149Z,99234.44
2023-03-06T00:43:11.885Z,99217.28
2023-03-06T00:45:40.521Z,99219.72
2023-03-06T00:48:10.220Z,99224.13
2023-03-06T00:50:39.936Z,99223.56
2023-03-06T00:53:08.328Z,99225.16
2023-03-06T00:55:36.682Z,99224.38
2023-03-06T00:58:05.124Z,99217.50
2023-03-06T01:00:33.473Z,99214.88
2023-03-06T01:03:01.837Z,99220.13
2023-03-06T01:05:30.271Z,99203.34
2023-03-06T01:08:00.035Z,99209.41
2023-03-06T01:10:28.530Z,99201.75
2023-03-06T01:12:57.218Z,99198.91
2023-03-06T01:15:27.430Z,99195.47
2023-03-06T01:17:55.991Z,99191.03
2023-03-06T01:20:24.583Z,99192.84
2023-03-06T01:22:54.647Z,99184.16
2023-03-06T01:25:25.760Z,99178.13
2023-03-06T01:27:54.316Z,99179.94
2023-03-06T01:30:23.025Z,99177.31
2023-03-06T01:32:51.606Z,99169.44
2023-03-06T01:35:36.036Z,99158.34
2023-03-06T01:38:04.391Z,99160.97
2023-03-06T01:40:34.388Z,99161.19
2023-03-06T01:43:11.919Z,99155.94
2023-03-06T01:46:19.610Z,99154.53
2023-03-06T01:48:49.832Z,99146.84
2023-03-06T01:51:18.602Z,99136.16
2023-03-06T01:53:48.174Z,99133.53
2023-03-06T01:56:18.032Z,99126.44
2023-03-06T01:58:47.109Z,99129.88
2023-03-06T02:01:17.176Z,99129.06
2023-03-06T02:03:47.391Z,99124.63
2023-03-06T02:06:19.794Z,99124.63
2023-03-06T02:08:49.399Z,99119.00
2023-03-06T02:11:22.475Z,99123.81
2023-03-06T02:13:53.051Z,99115.94
2023-03-06T02:16:26.280Z,99118.56
2023-03-06T02:18:54.911Z,99118.56
2023-03-06T02:21:28.700Z,99122.78
2023-03-06T02:24:08.712Z,99113.31
2023-03-06T02:26:40.496Z,99121.19
2023-03-06T02:29:10.036Z,99121.44
2023-03-06T02:31:38.755Z,99106.25
2023-03-06T02:34:53.474Z,99104.47
2023-03-06T02:37:23.361Z,99101.84
2023-03-06T02:39:58.629Z,99088.72
2023-03-06T02:42:29.968Z,99093.78
2023-03-06T02:45:02.602Z,99092.97
2023-03-06T02:47:31.467Z,99085.91
2023-03-06T02:49:59.829Z,99087.50
2023-03-06T02:52:28.308Z,99071.16
2023-03-06T02:54:57.659Z,99082.47
2023-03-06T02:57:27.417Z,99071.97
2023-03-06T02:59:57.296Z,99069.53
2023-03-06T03:02:26.039Z,99072.97
2023-03-06T03:04:54.464Z,99076.63
2023-03-06T03:07:22.840Z,99065.09
2023-03-06T03:09:51.182Z,99067.72
2023-03-06T03:12:19.655Z,99061.28
2023-03-06T03:14:49.540Z,99062.69
2023-03-06T03:17:17.948Z,99061.28
2023-03-06T03:19:47.920Z,99060.06
2023-03-06T03:22:17.546Z,99058.47
2023-03-06T03:24:46.061Z,99061.09
2023-03-06T03:27:14.984Z,99061.91
2023-03-06T03:29:43.761Z,99061.09
2023-03-06T03:32:13.828Z,99058.25
2023-03-06T03:34:43.728Z,99053.78
2023-03-06T03:37:12.199Z,99050.16
2023-03-06T03:39:44.141Z,99043.50
2023-03-06T03:42:13.331Z,99050.38
2023-03-06T03:44:41.692Z,99043.50
2023-03-06T03:47:10.172Z,99035.03
2023-03-06T03:49:40.812Z,99039.28
2023-03-06T03:52:09.862Z,99040.28
2023-03-06T03:54:40.018Z,99034.03
2023-03-06T03:57:08.424Z,99038.47
2023-03-06T03:59:40.880Z,99034.25
2023-03-06T04:02:29.470Z,99035.03
2023-03-06T04:05:15.586Z,99029.00
2023-03-06T04:07:44.865Z,99030.81
2023-03-06T04:10:14.743Z,99026.59
2023-03-06T04:12:43.832Z,99024.19
2023-03-06T04:15:13.598Z,99032.28
2023-03-06T04:17:42.246Z,99025.19
2023-03-06T04:20:17.365Z,99026.22
2023-03-06T04:23:08.948Z,99029.06
2023-03-06T04:25:37.342Z,99015.72
2023-03-06T04:28:08.852Z,99017.56
2023-03-06T04:30:37.461Z,99015.50
2023-03-06T04:33:06.802Z,99006.59
2023-03-06T04:35:37.507Z,99003.59
2023-03-06T04:38:11.124Z,99000.53
2023-03-06T04:40:39.733Z,99009.22
2023-03-06T04:43:08.256Z,99000.53
2023-03-06T04:45:36.919Z,99001.56
2023-03-06T04:48:05.880Z,99005.22
2023-03-06T04:50:34.274Z,98998.94
2023-03-06T04:53:04.852Z,99002.00
2023-03-06T04:55:33.457Z,99002.81
2023-03-06T04:58:01.857Z,98994.13
2023-03-06T05:00:31.768Z,98984.44
2023-03-06T05:03:02.114Z,98982.84
2023-03-06T05:05:31.140Z,98983.63
2023-03-06T05:07:59.477Z,98994.38
2023-03-06T05:10:29.231Z,98991.13
2023-03-06T05:12:57.594Z,98989.56
2023-03-06T05:15:25.933Z,98982.09
2023-03-06T05:17:54.271Z,98985.31
2023-03-06T05:20:22.777Z,98992.19
2023-03-06T05:22:51.695Z,98984.28
2023-03-06T05:25:20.221Z,98987.72
2023-03-06T05:27:49.948Z,98982.69
2023-03-06T05:30:18.742Z,98996.81
2023-03-06T05:32:47.242Z,98980.28
2023-03-06T05:35:19.936Z,98978.81
2023-03-06T05:37:48.581Z,98985.09
2023-03-06T05:40:18.957Z,98982.47
2023-03-06T05:42:47.356Z,98991.13
2023-03-06T05:45:17.378Z,98983.28
2023-03-06T05:47:46.315Z,98986.91
2023-03-06T05:50:15.031Z,98992.97
2023-03-06T05:52:43.688Z,98987.47
2023-03-06T05:55:13.760Z,98992.75
2023-03-06T05:57:42.347Z,98981.06
2023-03-06T06:00:13.021Z,98990.13
2023-03-06T06:02:43.510Z,98987.47
2023-03-06T06:05:13.238Z,98988.50
2023-03-06T06:07:42.550Z,98988.50
2023-03-06T06:10:13.607Z,98991.13
2023-03-06T06:12:42.167Z,98986.69
2023-03-06T06:15:11.645Z,98990.13
2023-03-06T06:17:40.074Z,98995.97
2023-03-06T06:20:12.651Z,98982.47
2023-03-06T06:22:41.228Z,98983.88
2023-03-06T06:25:10.446Z,98982.25
2023-03-06T06:27:39.010Z,98979.63
2023-03-06T06:30:11.896Z,98984.84
2023-03-06T06:32:40.537Z,98979.63
2023-03-06T06:35:11.183Z,98982.84
2023-03-06T06:37:39.552Z,98979.63
2023-03-06T06:40:09.856Z,98985.47
2023-03-06T06:42:40.059Z,98973.94
2023-03-06T06:45:10.543Z,98988.09
2023-03-06T06:47:41.436Z,98979.63
2023-03-06T06:50:14.463Z,98987.84
2023-03-06T06:52:43.160Z,98986.25
2023-03-06T06:55:13.126Z,98995.72
2023-03-06T06:57:42.365Z,98989.91
2023-03-06T07:00:14.005Z,99003.59
2023-03-06T07:02:42.647Z,99005.44
2023-03-06T07:05:12.687Z,99011.47
2023-03-06T07:07:41.057Z,98997.56
2023-03-06T07:10:14.674Z,99005.44
2023-03-06T07:12:43.235Z,99008.84
2023-03-06T07:15:14.698Z,99016.53
2023-03-06T07:17:43.272Z,99017.31
2023-03-06T07:20:13.590Z,98991.75
2023-03-06T07:22:50.871Z,99020.56
2023-03-06T07:25:20.846Z,99013.66
2023-03-06T07:27:53.753Z,99015.72
2023-03-06T07:30:23.566Z,99005.00
2023-03-06T07:32:55.216Z,99008.66
2023-03-06T07:35:26.035Z,99005.00
2023-03-06T07:37:54.689Z,99003.97
2023-03-06T07:40:24.213Z,99008.66
2023-03-06T07:42:56.541Z,99004.19
2023-03-06T07:45:36.491Z,98999.19
2023-03-06T07:48:06.241Z,99000.78
2023-03-06T07:50:36.148Z,98981.44
2023-03-06T07:53:04.484Z,98995.53
2023-03-06T07:55:35.639Z,98996.09
2023-03-06T07:58:03.937Z,99008.41
2023-03-06T08:00:32.362Z,99006.41
2023-03-06T08:03:00.696Z,99006.41
2023-03-06T08:05:29.048Z,99009.59
2023-03-06T08:07:59.416Z,99010.41
2023-03-06T08:10:28.069Z,99007.56
2023-03-06T08:12:56.592Z,99003.09
2023-03-06T08:15:24.939Z,99003.69
2023-03-06T08:17:53.724Z,99013.16
2023-03-06T08:20:22.224Z,99013.75
2023-03-06T08:22:50.567Z,99016.94
2023-03-06T08:25:20.601Z,99022.22
2023-03-06T08:27:48.952Z,99018.13
2023-03-06T08:30:19.629Z,99022.38
2023-03-06T08:32:48.036Z,99020.91
2023-03-06T08:35:16.417Z,99019.06
2023-03-06T08:37:44.792Z,99021.69
2023-03-06T08:40:14.386Z,99025.69
2023-03-06T08:42:44.165Z,99034.75
2023-03-06T08:45:13.028Z,99029.72
2023-03-06T08:47:41.363Z,99034.53
2023-03-06T08:50:11.843Z,99035.31
2023-03-06T08:52:40.166Z,99035.13
2023-03-06T08:55:10.094Z,99040.13
2023-03-06T08:57:38.438Z,99036.28
2023-03-06T09:00:11.898Z,99046.00
2023-03-06T09:02:40.582Z,99043.38
2023-03-06T09:05:10.383Z,99040.72
2023-03-06T09:07:38.718Z,99044.16
2023-03-06T09:10:08.885Z,99044.97
2023-03-06T09:12:49.474Z,99045.75
2023-03-06T09:15:22.817Z,99044.72
2023-03-06T09:17:51.858Z,99048.16
2023-03-06T09:20:20.811Z,99049.53
2023-03-06T09:22:49.289Z,99042.47
2023-03-06T09:25:20.404Z,99042.47
2023-03-06T09:27:58.297Z,99038.47
2023-03-06T09:30:34.977Z,99046.13
2023-03-06T09:33:03.294Z,99038.25
2023-03-06T09:35:31.637Z,99040.28
2023-03-06T09:38:00.017Z,99037.88
2023-03-06T09:40:42.889Z,99026.56
2023-03-06T09:43:20.820Z,99035.38
2023-03-06T09:45:50.641Z,99035.16
2023-03-06T09:48:24.072Z,99040.78
2023-03-06T09:50:58.880Z,99036.31
2023-03-06T09:53:47.284Z,99043.97
2023-03-06T09:56:19.375Z,99029.25
2023-03-06T09:58:51.806Z,99023.63
2023-03-06T10:01:25.952Z,99034.84
2023-03-06T10:03:59.296Z,99037.28
2023-03-06T10:06:32.174Z,99031.19
2023-03-06T10:09:05.635Z,99036.44
2023-03-06T10:11:40.860Z,99029.72
2023-03-06T10:14:21.055Z,99036.38
2023-03-06T10:16:50.992Z,99044.06
2023-03-06T10:19:21.930Z,99040.41
2023-03-06T10:22:00.612Z,99035.94
2023-03-06T10:24:46.972Z,99037.75
2023-03-06T10:27:32.938Z,99040.84
2023-03-06T10:30:17.024Z,99043.03
2023-03-06T10:32:55.842Z,99041.19
2023-03-06T10:35:30.761Z,99037.75
2023-03-06T10:38:14.508Z,99038.56
2023-03-06T10:40:55.180Z,99027.25
2023-03-06T10:43:24.199Z,99042.22
2023-03-06T10:45:54.724Z,99031.91
2023-03-06T10:48:26.939Z,99031.72
2023-03-06T10:51:18.614Z,99033.53
2023-03-06T10:53:54.660Z,99031.47
2023-03-06T10:56:32.447Z,99039.34
2023-03-06T10:59:12.275Z,99041.19
2023-03-06T11:01:42.240Z,99035.94
2023-03-06T11:04:28.383Z,99030.69
2023-03-06T11:07:09.098Z,99036.53
2023-03-06T11:09:37.659Z,99035.69
2023-03-06T11:12:27.010Z,99035.69
2023-03-06T11:15:22.221Z,99037.31
2023-03-06T11:17:59.443Z,99038.91
2023-03-06T11:20:50.158Z,99037.09
2023-03-06T11:23:24.424Z,99037.88
2023-03-06T11:25:58.217Z,99034.03
2023-03-06T11:28:32.130Z,99024.31
2023-03-06T11:31:08.223Z,99021.22
2023-03-06T11:33:42.254Z,99018.16
2023-03-06T11:36:17.451Z,99018.72
2023-03-06T11:38:50.165Z,99015.09
2023-03-06T11:41:32.956Z,99023.91
2023-03-06T11:44:09.546Z,99012.81
2023-03-06T11:46:42.026Z,99014.75
2023-03-06T11:49:22.175Z,99010.06
2023-03-06T11:51:56.933Z,99007.22
2023-03-06T11:54:25.560Z,99010.22
2023-03-06T11:56:59.755Z,99004.94
2023-03-06T11:59:55.575Z,99007.34
2023-03-06T12:02:40.696Z,99003.91
2023-03-06T12:05:33.622Z,98998.66
2023-03-06T12:08:20.149Z,99003.34
2023-03-06T12:10:52.350Z,99000.25
2023-03-06T12:13:36.973Z,98998.44
2023-03-06T12:16:42.053Z,98988.16
2023-03-06T12:19:25.766Z,98988.53
2023-03-06T12:22:13.446Z,98997.81
2023-03-06T12:25:06.972Z,98985.81
2023-03-06T12:27:43.425Z,98981.13
2023-03-06T12:30:37.772Z,98982.72
2023-03-06T12:33:21.031Z,98979.06
2023-03-06T12:36:01.403Z,98976.22
2023-03-06T12:39:00.402Z,98971.97
2023-03-06T12:42:00.514Z,98977.00
2023-03-06T12:44:55.026Z,98955.97
2023-03-06T12:47:27.873Z,98971.31
2023-03-06T12:50:02.523Z,98960.78
2023-03-06T12:52:33.927Z,98964.31
2023-03-06T12:55:07.567Z,98961.44
2023-03-06T12:57:37.265Z,98959.50
2023-03-06T13:00:08.532Z,98957.56
2023-03-06T13:03:08.144Z,98953.56
2023-03-06T13:06:15.136Z,98950.13
2023-03-06T13:09:05.799Z,98946.94
2023-03-06T13:12:14.312Z,98949.56
2023-03-06T13:14:58.032Z,98944.88
2023-03-06T13:17:44.230Z,98943.63
2023-03-06T13:20:45.209Z,98936.31
2023-03-06T13:23:52.581Z,98942.38
2023-03-06T13:26:51.875Z,98943.72
2023-03-06T13:30:09.785Z,98941.69
2023-03-06T13:32:38.155Z,98929.09
2023-03-06T13:35:55.614Z,98937.09
2023-03-06T13:38:54.192Z,98939.50
2023-03-06T13:41:58.296Z,98936.75
2023-03-06T13:44:48.810Z,98936.53
2023-03-06T13:48:05.818Z,98938.91
2023-03-06T13:50:41.359Z,98926.34
2023-03-06T13:54:11.051Z,98924.50
2023-03-06T13:57:26.021Z,98918.66
2023-03-06T14:00:58.709Z,98922.34
2023-03-06T14:04:01.363Z,98927.84
2023-03-06T14:06:52.464Z,98924.97
2023-03-06T14:09:29.355Z,98920.75
2023-03-06T14:12:05.458Z,98916.84
2023-03-06T14:14:40.768Z,98914.78
2023-03-06T14:17:24.268Z,98908.94
2023-03-06T14:19:54.222Z,98912.50
2023-03-06T14:22:25.590Z,98908.28
2023-03-06T14:24:59.770Z,98909.41
2023-03-06T14:27:45.257Z,98900.47
2023-03-06T14:30:23.623Z,98909.16
2023-03-06T14:32:55.140Z,98897.13
2023-03-06T14:35:29.414Z,98888.44
2023-03-06T14:38:01.857Z,98891.31
2023-03-06T14:40:34.916Z,98890.03
2023-03-06T14:43:22.115Z,98892.56
2023-03-06T14:45:58.780Z,98894.75
2023-03-06T14:48:39.681Z,98897.13
2023-03-06T14:51:17.807Z,98889.69
2023-03-06T14:53:48.557Z,98894.75
2023-03-06T14:56:20.266Z,98889.16
2023-03-06T14:58:59.648Z,98900.91
2023-03-06T15:01:35.547Z,98892.94
2023-03-06T15:04:15.832Z,98900.84
2023-03-06T15:06:46.662Z,98897.41
2023-03-06T15:09:21.509Z,98905.75
2023-03-06T15:12:01.063Z,98891.22
2023-03-06T15:14:35.435Z,98893.63
2023-03-06T15:17:32.072Z,98893.31
2023-03-06T15:20:02.261Z,98889.63
2023-03-06T15:22:37.895Z,98904.03
2023-03-06T15:25:26.720Z,98906.66
2023-03-06T15:27:58.065Z,98907.13
2023-03-06T15:30:30.403Z,98898.44
2023-03-06T15:33:27.267Z,98908.97
2023-03-06T15:35:57.837Z,98902.91
2023-03-06T15:38:36.714Z,98905.53
2023-03-06T15:41:07.885Z,98911.03
2023-03-06T15:43:40.236Z,98907.03
2023-03-06T15:46:09.190Z,98908.28
2023-03-06T15:48:37.624Z,98909.66
2023-03-06T15:51:06.749Z,98905.44
2023-03-06T15:53:36.504Z,98907.03
2023-03-06T15:56:05.182Z,98903.00
2023-03-06T15:58:35.207Z,98902.66
2023-03-06T16:01:03.810Z,98909.88
2023-03-06T16:03:32.393Z,98909.88
2023-03-06T16:06:00.717Z,98915.97
2023-03-06T16:08:29.130Z,98907.25
2023-03-06T16:10:59.177Z,98903.81
2023-03-06T16:13:30.028Z,98906.22
2023-03-06T16:15:58.578Z,98896.97
2023-03-06T16:18:26.934Z,98904.06
2023-03-06T16:20:55.236Z,98906.91
2023-03-06T16:23:23.588Z,98900.28
2023-03-06T16:25:51.995Z,98913.66
2023-03-06T16:28:21.772Z,98918.13
2023-03-06T16:30:50.167Z,98914.69
2023-03-06T16:33:27.740Z,98916.53
2023-03-06T16:35:56.441Z,98906.78
2023-03-06T16:38:24.790Z,98907.03
2023-03-06T16:40:53.126Z,98913.09
2023-03-06T16:43:22.871Z,98923.63
2023-03-06T16:45:56.589Z,98912.28
2023-03-06T16:48:25.849Z,98910.66
2023-03-06T16:50:54.211Z,98914.09
2023-03-06T16:53:22.588Z,98913.53
2023-03-06T16:55:50.988Z,98914.00
2023-03-06T16:58:19.344Z,98920.84
2023-03-06T17:00:49.048Z,98914.25
2023-03-06T17:03:17.968Z,98915.03
2023-03-06T17:05:46.474Z,98911.81
2023-03-06T17:08:14.863Z,98915.50
2023-03-06T17:10:43.342Z,98922.34
2023-03-06T17:13:12.462Z,98922.34
2023-03-06T17:15:40.926Z,98923.63
2023-03-06T17:18:10.655Z,98918.13
2023-03-06T17:20:38.983Z,98931.28
2023-03-06T17:23:07.426Z,98932.31
2023-03-06T17:25:35.745Z,98927.25
2023-03-06T17:28:04.028Z,98936.97
2023-03-06T17:30:32.336Z,98945.09
2023-03-06T17:33:00.825Z,98945.31
2023-03-06T17:35:30.806Z,98942.34
2023-03-06T17:37:59.279Z,98938.72
2023-03-06T17:40:27.628Z,98953.66
2023-03-06T17:42:55.994Z,98944.97
2023-03-06T17:45:24.378Z,98937.31
2023-03-06T17:47:55.447Z,98947.50
2023-03-06T17:50:23.805Z,98952.50
2023-03-06T17:52:53.542Z,98952.50
2023-03-06T17:55:22.004Z,98954.56
2023-03-06T17:57:53.080Z,98954.56
2023-03-06T18:00:23.023Z,98953.97
2023-03-06T18:02:51.438Z,98953.63
2023-03-06T18:05:20.828Z,98943.78
2023-03-06T18:07:49.158Z,98953.72
2023-03-06T18:10:19.200Z,98964.69
2023-03-06T18:12:47.653Z,98958.84
2023-03-06T18:15:16.525Z,98958.25
2023-03-06T18:17:44.931Z,98975.06
2023-03-06T18:20:13.868Z,98958.94
2023-03-06T18:22:42.285Z,98963.66
2023-03-06T18:25:11.331Z,98958.84
2023-03-06T18:27:41.140Z,98963.28
2023-03-06T18:30:11.336Z,98964.66
2023-03-06T18:32:39.848Z,98971.75
2023-03-06T18:35:09.785Z,98963.28
2023-03-06T18:37:38.189Z,98967.16
2023-03-06T18:40:08.407Z,98966.81
2023-03-06T18:42:36.839Z,98957.78
2023-03-06T18:45:08.516Z,98955.34
2023-03-06T18:47:36.991Z,98951.13
2023-03-06T18:50:06.232Z,98953.19
2023-03-06T18:52:35.572Z,98954.78
2023-03-06T18:55:03.972Z,98958.31
2023-03-06T18:57:32.315Z,98948.81
2023-03-06T19:00:02.770Z,98957.06
2023-03-06T19:02:32.518Z,98946.19
2023-03-06T19:05:00.930Z,98950.22
2023-03-06T19:07:29.326Z,98954.63
2023-03-06T19:09:57.700Z,98962.53
2023-03-06T19:12:26.133Z,98945.97
2023-03-06T19:14:54.488Z,98948.22
2023-03-06T19:17:24.933Z,98946.66
2023-03-06T19:19:55.487Z,98933.50
2023-03-06T19:22:24.162Z,98938.16
2023-03-06T19:24:52.513Z,98937.00
2023-03-06T19:27:20.847Z,98935.66
2023-03-06T19:29:49.179Z,98937.69
2023-03-06T19:32:17.668Z,98929.03
2023-03-06T19:34:49.283Z,98927.63
2023-03-06T19:37:18.983Z,98930.84
2023-03-06T19:39:47.301Z,98936.91
2023-03-06T19:42:15.655Z,98937.94
2023-03-06T19:44:44.181Z,98937.34
2023-03-06T19:47:12.539Z,98931.28
2023-03-06T19:49:41.083Z,98942.81
2023-03-06T19:52:09.453Z,98950.34
2023-03-06T19:54:39.779Z,98937.41
2023-03-06T19:57:08.202Z,98934.22
2023-03-06T19:59:36.560Z,98932.16
2023-03-06T20:02:04.910Z,98928.97
2023-03-06T20:04:33.623Z,98917.44
2023-03-06T20:07:04.762Z,98923.25
2023-03-06T20:09:33.497Z,98924.88
2023-03-06T20:12:03.311Z,98927.50
2023-03-06T20:14:31.599Z,98921.66
2023-03-06T20:16:59.969Z,98927.16
2023-03-06T20:19:28.594Z,98931.59
2023-03-06T20:21:56.929Z,98917.31
2023-03-06T20:24:26.029Z,98916.84
2023-03-06T20:26:57.516Z,98912.44
2023-03-06T20:29:28.451Z,98912.44
2023-03-06T20:31:58.170Z,98913.22
2023-03-06T20:34:27.749Z,98917.69
2023-03-06T20:36:57.897Z,98919.72
2023-03-06T20:39:26.307Z,98913.06
2023-03-06T20:41:54.871Z,98908.84
2023-03-06T20:44:23.281Z,98911.72
2023-03-06T20:46:53.153Z,98906.81
2023-03-06T20:49:21.613Z,98909.22
2023-03-06T20:51:50.024Z,98907.38
2023-03-06T20:54:18.694Z,98910.00
2023-03-06T20:56:50.147Z,98895.47
2023-03-06T20:59:19.393Z,98904.75
2023-03-06T21:01:48.278Z,98902.38
2023-03-06T21:04:18.380Z,98903.16
2023-03-06T21:06:47.409Z,98895.03
2023-03-06T21:09:17.643Z,98901.09
2023-03-06T21:11:46.788Z,98891.41
2023-03-06T21:14:15.677Z,98889.13
2023-03-06T21:16:44.509Z,98899.41
2023-03-06T21:19:12.932Z,98905.47
2023-03-06T21:21:42.816Z,98891.53
2023-03-06T21:24:11.244Z,98894.16
2023-03-06T21:26:39.654Z,98898.19
2023-03-06T21:29:08.009Z,98889.25
2023-03-06T21:31:36.627Z,98897.94
2023-03-06T21:34:06.352Z,98899.78
2023-03-06T21:36:35.197Z,98893.47
2023-03-06T21:39:06.247Z,98884.00
2023-03-06T21:41:34.821Z,98876.34
2023-03-06T21:44:06.289Z,98872.91
2023-03-06T21:46:35.852Z,98870.28
2023-03-06T21:49:05.667Z,98870.28
2023-03-06T21:51:34.425Z,98864.03
2023-03-06T21:54:04.998Z,98866.66
2023-03-06T21:56:33.715Z,98858.78
2023-03-06T21:59:02.187Z,98863.00
2023-03-06T22:01:31.170Z,98864.59
2023-03-06T22:04:00.301Z,98854.09
2023-03-06T22:06:32.245Z,98855.69
2023-03-06T22:09:01.802Z,98847.25
2023-03-06T22:11:34.280Z,98860.56
2023-03-06T22:14:02.714Z,98847.44
2023-03-06T22:16:31.655Z,98853.53
2023-03-06T22:19:00.784Z,98859.44
2023-03-06T22:21:29.156Z,98844.94
2023-03-06T22:23:59.256Z,98843.78
2023-03-06T22:26:29.189Z,98845.03
2023-03-06T22:28:59.002Z,98843.44
2023-03-06T22:31:29.649Z,98841.03
2023-03-06T22:34:00.064Z,98852.75
2023-03-06T22:36:30.350Z,98850.13
2023-03-06T22:39:01.260Z,98837.94
2023-03-06T22:41:30.024Z,98834.84
2023-03-06T22:44:01.595Z,98840.91
2023-03-06T22:46:30.873Z,98846.94
2023-03-06T22:49:00.684Z,98839.88
2023-03-06T22:51:32.455Z,98836.22
2023-03-06T22:54:00.818Z,98830.97
2023-03-06T22:56:32.262Z,98827.34
2023-03-06T22:59:01.985Z,98815.19
2023-03-06T23:01:32.964Z,98834.72
2023-03-06T23:04:04.382Z,98825.84
2023-03-06T23:06:35.268Z,98822.44
2023-03-06T23:09:06.904Z,98818.78
2023-03-06T23:11:53.809Z,98816.34
2023-03-06T23:14:42.100Z,98814.56
2023-03-06T23:17:29.357Z,98816.34
2023-03-06T23:20:16.498Z,98803.22
2023-03-06T23:23:03.080Z,98806.31
2023-03-06T23:25:43.946Z,98800.47
2023-03-06T23:28:13.056Z,98812.03
2023-03-06T23:30:43.397Z,98814.84
2023-03-06T23:33:12.347Z,98817.72
2023-03-06T23:35:40.644Z,98815.44
2023-03-06T23:38:11.536Z,98815.19
2023-03-06T23:40:40.339Z,98813.97
2023-03-06T23:43:08.822Z,98816.59
2023-03-06T23:45:37.178Z,98824.22
2023-03-06T23:48:08.678Z,98817.19
2023-03-06T23:50:41.127Z,98818.97
2023-03-06T23:53:09.531Z,98813.72
2023-03-06T23:55:41.915Z,98818.78
2023-03-06T23:58:10.281Z,98803.81
